sensor_id;sensor_type;location;lat;lon;timestamp;temperature;humidity
53274;DHT22;39163;52.696;6.758;2022-09-03T00:02:33;16.40;82.60
53274;DHT22;39163;52.696;6.758;2022-09-03T00:05:15;16.40;82.80
53274;DHT22;39163;52.696;6.758;2022-09-03T00:13:33;16.40;82.40
53274;DHT22;39163;52.696;6.758;2022-09-03T00:16:03;16.40;82.60
53274;DHT22;39163;52.696;6.758;2022-09-03T00:18:31;16.30;82.70
53274;DHT22;39163;52.696;6.758;2022-09-03T00:21:03;16.20;82.60
53274;DHT22;39163;52.696;6.758;2022-09-03T00:23:38;16.20;82.60
53274;DHT22;39163;52.696;6.758;2022-09-03T00:31:13;16.00;83.20
53274;DHT22;39163;52.696;6.758;2022-09-03T00:33:44;16.00;83.00
53274;DHT22;39163;52.696;6.758;2022-09-03T00:36:20;15.90;83.50
53274;DHT22;39163;52.696;6.758;2022-09-03T00:38:47;15.90;83.30
53274;DHT22;39163;52.696;6.758;2022-09-03T00:41:28;15.80;83.30
53274;DHT22;39163;52.696;6.758;2022-09-03T00:44:19;15.80;83.70
53274;DHT22;39163;52.696;6.758;2022-09-03T00:46:52;15.70;84.00
53274;DHT22;39163;52.696;6.758;2022-09-03T00:52:14;15.60;84.00
53274;DHT22;39163;52.696;6.758;2022-09-03T00:57:29;15.50;84.70
53274;DHT22;39163;52.696;6.758;2022-09-03T01:00:15;15.60;84.00
53274;DHT22;39163;52.696;6.758;2022-09-03T01:03:04;15.50;84.80
53274;DHT22;39163;52.696;6.758;2022-09-03T01:16:53;15.40;85.10
53274;DHT22;39163;52.696;6.758;2022-09-03T01:22:35;15.40;85.30
53274;DHT22;39163;52.696;6.758;2022-09-03T01:28:36;15.50;85.60
53274;DHT22;39163;52.696;6.758;2022-09-03T01:34:15;15.50;85.30
53274;DHT22;39163;52.696;6.758;2022-09-03T01:39:53;15.50;85.40
53274;DHT22;39163;52.696;6.758;2022-09-03T01:59:07;15.50;85.80
53274;DHT22;39163;52.696;6.758;2022-09-03T02:01:42;15.50;85.80
53274;DHT22;39163;52.696;6.758;2022-09-03T02:04:18;15.50;85.90
53274;DHT22;39163;52.696;6.758;2022-09-03T02:06:48;15.50;85.90
53274;DHT22;39163;52.696;6.758;2022-09-03T02:09:15;15.50;86.00
53274;DHT22;39163;52.696;6.758;2022-09-03T02:11:50;15.50;85.70
53274;DHT22;39163;52.696;6.758;2022-09-03T02:14:19;15.60;86.40
53274;DHT22;39163;52.696;6.758;2022-09-03T02:16:45;15.60;85.90
53274;DHT22;39163;52.696;6.758;2022-09-03T02:19:14;15.60;86.20
53274;DHT22;39163;52.696;6.758;2022-09-03T02:21:51;15.60;86.10
53274;DHT22;39163;52.696;6.758;2022-09-03T02:24:18;15.60;86.30
53274;DHT22;39163;52.696;6.758;2022-09-03T02:26:51;15.60;86.20
53274;DHT22;39163;52.696;6.758;2022-09-03T02:29:20;15.60;86.00
53274;DHT22;39163;52.696;6.758;2022-09-03T02:31:46;15.60;86.40
53274;DHT22;39163;52.696;6.758;2022-09-03T02:34:18;15.60;86.30
53274;DHT22;39163;52.696;6.758;2022-09-03T02:36:47;15.60;86.40
53274;DHT22;39163;52.696;6.758;2022-09-03T02:39:14;15.50;86.40
53274;DHT22;39163;52.696;6.758;2022-09-03T02:41:42;15.60;86.80
53274;DHT22;39163;52.696;6.758;2022-09-03T02:44:15;15.60;86.90
53274;DHT22;39163;52.696;6.758;2022-09-03T02:47:03;15.60;86.60
53274;DHT22;39163;52.696;6.758;2022-09-03T02:49:55;15.60;87.10
53274;DHT22;39163;52.696;6.758;2022-09-03T02:52:26;15.60;86.60
53274;DHT22;39163;52.696;6.758;2022-09-03T02:54:52;15.60;86.70
53274;DHT22;39163;52.696;6.758;2022-09-03T02:57:27;15.60;87.00
53274;DHT22;39163;52.696;6.758;2022-09-03T02:59:54;15.60;86.80
53274;DHT22;39163;52.696;6.758;2022-09-03T03:02:20;15.60;87.40
53274;DHT22;39163;52.696;6.758;2022-09-03T03:04:52;15.60;87.30
53274;DHT22;39163;52.696;6.758;2022-09-03T03:07:22;15.60;87.60
53274;DHT22;39163;52.696;6.758;2022-09-03T03:09:51;15.50;87.40
53274;DHT22;39163;52.696;6.758;2022-09-03T03:12:17;15.50;87.30
53274;DHT22;39163;52.696;6.758;2022-09-03T03:14:46;15.50;87.50
53274;DHT22;39163;52.696;6.758;2022-09-03T03:17:14;15.40;87.30
53274;DHT22;39163;52.696;6.758;2022-09-03T03:19:40;15.40;87.40
53274;DHT22;39163;52.696;6.758;2022-09-03T03:22:06;15.40;87.50
53274;DHT22;39163;52.696;6.758;2022-09-03T03:24:31;15.30;88.20
53274;DHT22;39163;52.696;6.758;2022-09-03T03:26:57;15.30;88.20
53274;DHT22;39163;52.696;6.758;2022-09-03T03:29:23;15.20;88.70
53274;DHT22;39163;52.696;6.758;2022-09-03T03:31:50;15.10;88.30
53274;DHT22;39163;52.696;6.758;2022-09-03T03:34:19;15.10;88.90
53274;DHT22;39163;52.696;6.758;2022-09-03T03:36:44;15.00;89.00
53274;DHT22;39163;52.696;6.758;2022-09-03T03:39:10;15.00;89.20
53274;DHT22;39163;52.696;6.758;2022-09-03T03:41:39;14.90;89.50
53274;DHT22;39163;52.696;6.758;2022-09-03T03:44:06;14.90;89.90
53274;DHT22;39163;52.696;6.758;2022-09-03T03:46:37;14.80;90.30
53274;DHT22;39163;52.696;6.758;2022-09-03T03:49:04;14.80;90.10
53274;DHT22;39163;52.696;6.758;2022-09-03T03:51:31;14.70;90.50
53274;DHT22;39163;52.696;6.758;2022-09-03T03:53:57;14.70;90.80
53274;DHT22;39163;52.696;6.758;2022-09-03T03:56:24;14.60;90.50
53274;DHT22;39163;52.696;6.758;2022-09-03T03:58:51;14.60;90.90
53274;DHT22;39163;52.696;6.758;2022-09-03T04:01:19;14.60;90.90
53274;DHT22;39163;52.696;6.758;2022-09-03T04:03:46;14.50;90.90
53274;DHT22;39163;52.696;6.758;2022-09-03T04:06:14;14.50;91.30
53274;DHT22;39163;52.696;6.758;2022-09-03T04:08:41;14.50;91.20
53274;DHT22;39163;52.696;6.758;2022-09-03T04:11:13;14.40;91.60
53274;DHT22;39163;52.696;6.758;2022-09-03T04:13:43;14.40;91.30
53274;DHT22;39163;52.696;6.758;2022-09-03T04:16:12;14.40;91.90
53274;DHT22;39163;52.696;6.758;2022-09-03T04:18:39;14.30;91.80
53274;DHT22;39163;52.696;6.758;2022-09-03T04:21:13;14.30;92.00
53274;DHT22;39163;52.696;6.758;2022-09-03T04:23:42;14.30;91.90
53274;DHT22;39163;52.696;6.758;2022-09-03T04:26:09;14.30;92.10
53274;DHT22;39163;52.696;6.758;2022-09-03T04:28:36;14.30;92.20
53274;DHT22;39163;52.696;6.758;2022-09-03T04:31:03;14.30;92.10
53274;DHT22;39163;52.696;6.758;2022-09-03T04:33:30;14.20;92.60
53274;DHT22;39163;52.696;6.758;2022-09-03T04:36:06;14.20;92.90
53274;DHT22;39163;52.696;6.758;2022-09-03T04:38:37;14.20;92.80
53274;DHT22;39163;52.696;6.758;2022-09-03T04:41:08;14.20;93.10
53274;DHT22;39163;52.696;6.758;2022-09-03T04:43:43;14.20;93.00
53274;DHT22;39163;52.696;6.758;2022-09-03T04:46:11;14.10;93.00
53274;DHT22;39163;52.696;6.758;2022-09-03T04:48:38;14.20;93.80
53274;DHT22;39163;52.696;6.758;2022-09-03T04:51:09;14.20;93.80
53274;DHT22;39163;52.696;6.758;2022-09-03T04:53:58;14.10;93.50
53274;DHT22;39163;52.696;6.758;2022-09-03T04:56:34;14.20;94.00
53274;DHT22;39163;52.696;6.758;2022-09-03T04:59:05;14.20;93.80
53274;DHT22;39163;52.696;6.758;2022-09-03T05:01:41;14.10;93.80
53274;DHT22;39163;52.696;6.758;2022-09-03T05:04:13;14.10;93.90
53274;DHT22;39163;52.696;6.758;2022-09-03T05:06:39;14.10;94.10
53274;DHT22;39163;52.696;6.758;2022-09-03T05:09:05;14.10;94.60
53274;DHT22;39163;52.696;6.758;2022-09-03T05:11:31;14.10;94.20
53274;DHT22;39163;52.696;6.758;2022-09-03T05:14:00;14.20;94.50
53274;DHT22;39163;52.696;6.758;2022-09-03T05:16:27;14.20;94.40
53274;DHT22;39163;52.696;6.758;2022-09-03T05:18:56;14.20;94.50
53274;DHT22;39163;52.696;6.758;2022-09-03T05:21:28;14.20;94.60
53274;DHT22;39163;52.696;6.758;2022-09-03T05:23:58;14.30;95.10
53274;DHT22;39163;52.696;6.758;2022-09-03T05:26:29;14.30;94.70
53274;DHT22;39163;52.696;6.758;2022-09-03T05:32:03;14.40;95.00
53274;DHT22;39163;52.696;6.758;2022-09-03T05:34:32;14.50;94.90
53274;DHT22;39163;52.696;6.758;2022-09-03T05:36:58;14.60;95.20
53274;DHT22;39163;52.696;6.758;2022-09-03T05:39:36;14.70;95.10
53274;DHT22;39163;52.696;6.758;2022-09-03T05:42:01;14.80;95.20
53274;DHT22;39163;52.696;6.758;2022-09-03T05:44:36;14.80;95.30
53274;DHT22;39163;52.696;6.758;2022-09-03T05:47:03;14.90;95.40
53274;DHT22;39163;52.696;6.758;2022-09-03T05:49:41;15.00;95.40
53274;DHT22;39163;52.696;6.758;2022-09-03T05:54:43;15.10;95.10
53274;DHT22;39163;52.696;6.758;2022-09-03T05:57:12;15.10;95.00
53274;DHT22;39163;52.696;6.758;2022-09-03T05:59:38;15.20;95.10
53274;DHT22;39163;52.696;6.758;2022-09-03T06:02:04;15.30;94.90
53274;DHT22;39163;52.696;6.758;2022-09-03T06:15:18;15.10;95.40
53274;DHT22;39163;52.696;6.758;2022-09-03T06:17:44;15.10;95.70
53274;DHT22;39163;52.696;6.758;2022-09-03T06:20:13;15.20;95.60
53274;DHT22;39163;52.696;6.758;2022-09-03T06:22:38;15.30;95.60
53274;DHT22;39163;52.696;6.758;2022-09-03T06:25:13;15.40;95.60
53274;DHT22;39163;52.696;6.758;2022-09-03T06:36:56;16.40;94.30
53274;DHT22;39163;52.696;6.758;2022-09-03T06:39:27;16.60;94.30
53274;DHT22;39163;52.696;6.758;2022-09-03T06:41:53;17.30;93.30
53274;DHT22;39163;52.696;6.758;2022-09-03T06:44:19;17.50;92.70
53274;DHT22;39163;52.696;6.758;2022-09-03T06:46:45;17.30;92.70
53274;DHT22;39163;52.696;6.758;2022-09-03T06:49:12;18.10;92.90
53274;DHT22;39163;52.696;6.758;2022-09-03T06:51:39;19.20;91.80
53274;DHT22;39163;52.696;6.758;2022-09-03T06:54:10;20.00;90.90
53274;DHT22;39163;52.696;6.758;2022-09-03T06:56:37;20.40;90.10
53274;DHT22;39163;52.696;6.758;2022-09-03T06:59:08;20.80;87.90
53274;DHT22;39163;52.696;6.758;2022-09-03T07:01:34;21.10;87.40
53274;DHT22;39163;52.696;6.758;2022-09-03T07:04:04;21.40;86.20
53274;DHT22;39163;52.696;6.758;2022-09-03T07:06:38;21.60;85.50
53274;DHT22;39163;52.696;6.758;2022-09-03T07:09:12;21.80;84.30
53274;DHT22;39163;52.696;6.758;2022-09-03T07:11:47;21.90;84.00
53274;DHT22;39163;52.696;6.758;2022-09-03T07:14:19;22.00;83.30
53274;DHT22;39163;52.696;6.758;2022-09-03T07:16:47;22.10;83.10
53274;DHT22;39163;52.696;6.758;2022-09-03T07:19:13;22.30;83.30
53274;DHT22;39163;52.696;6.758;2022-09-03T07:21:41;22.30;82.80
53274;DHT22;39163;52.696;6.758;2022-09-03T07:24:08;22.30;81.90
53274;DHT22;39163;52.696;6.758;2022-09-03T07:26:39;22.40;82.60
53274;DHT22;39163;52.696;6.758;2022-09-03T07:29:08;22.40;80.40
53274;DHT22;39163;52.696;6.758;2022-09-03T07:31:40;22.30;80.60
53274;DHT22;39163;52.696;6.758;2022-09-03T07:34:08;22.10;80.90
53274;DHT22;39163;52.696;6.758;2022-09-03T07:36:39;22.20;81.40
53274;DHT22;39163;52.696;6.758;2022-09-03T07:39:11;22.20;81.00
53274;DHT22;39163;52.696;6.758;2022-09-03T07:41:37;22.50;81.10
53274;DHT22;39163;52.696;6.758;2022-09-03T07:44:03;22.70;79.80
53274;DHT22;39163;52.696;6.758;2022-09-03T07:46:34;22.60;79.90
53274;DHT22;39163;52.696;6.758;2022-09-03T07:49:01;22.70;79.80
53274;DHT22;39163;52.696;6.758;2022-09-03T07:51:29;22.70;79.60
53274;DHT22;39163;52.696;6.758;2022-09-03T07:53:59;23.10;79.80
53274;DHT22;39163;52.696;6.758;2022-09-03T07:56:28;23.00;77.80
53274;DHT22;39163;52.696;6.758;2022-09-03T07:58:57;23.00;78.50
53274;DHT22;39163;52.696;6.758;2022-09-03T08:01:24;23.00;77.80
53274;DHT22;39163;52.696;6.758;2022-09-03T08:03:52;23.10;78.30
53274;DHT22;39163;52.696;6.758;2022-09-03T08:06:21;23.00;77.70
53274;DHT22;39163;52.696;6.758;2022-09-03T08:08:47;22.90;78.00
53274;DHT22;39163;52.696;6.758;2022-09-03T08:11:15;23.10;78.80
53274;DHT22;39163;52.696;6.758;2022-09-03T08:13:43;23.30;78.00
53274;DHT22;39163;52.696;6.758;2022-09-03T08:16:11;23.50;77.50
53274;DHT22;39163;52.696;6.758;2022-09-03T08:18:37;23.70;78.10
53274;DHT22;39163;52.696;6.758;2022-09-03T08:21:05;23.80;77.90
53274;DHT22;39163;52.696;6.758;2022-09-03T08:23:35;23.80;77.80
53274;DHT22;39163;52.696;6.758;2022-09-03T08:26:01;23.50;77.90
53274;DHT22;39163;52.696;6.758;2022-09-03T08:28:28;23.10;77.80
53274;DHT22;39163;52.696;6.758;2022-09-03T08:30:54;22.90;78.40
53274;DHT22;39163;52.696;6.758;2022-09-03T08:33:20;22.60;79.60
53274;DHT22;39163;52.696;6.758;2022-09-03T08:36:15;22.30;78.80
53274;DHT22;39163;52.696;6.758;2022-09-03T08:38:42;22.10;80.20
53274;DHT22;39163;52.696;6.758;2022-09-03T08:47:01;21.70;79.70
53274;DHT22;39163;52.696;6.758;2022-09-03T08:49:48;21.80;81.40
53274;DHT22;39163;52.696;6.758;2022-09-03T08:52:40;22.00;80.70
53274;DHT22;39163;52.696;6.758;2022-09-03T08:57:50;22.40;81.70
53274;DHT22;39163;52.696;6.758;2022-09-03T09:00:17;22.50;80.50
53274;DHT22;39163;52.696;6.758;2022-09-03T09:05:34;22.60;79.30
53274;DHT22;39163;52.696;6.758;2022-09-03T09:08:30;22.60;79.10
53274;DHT22;39163;52.696;6.758;2022-09-03T09:14:01;22.90;80.50
53274;DHT22;39163;52.696;6.758;2022-09-03T09:19:30;23.40;79.90
53274;DHT22;39163;52.696;6.758;2022-09-03T09:22:08;23.40;78.70
53274;DHT22;39163;52.696;6.758;2022-09-03T09:24:41;23.50;77.60
53274;DHT22;39163;52.696;6.758;2022-09-03T09:27:07;23.50;78.50
53274;DHT22;39163;52.696;6.758;2022-09-03T09:29:36;23.60;78.10
53274;DHT22;39163;52.696;6.758;2022-09-03T09:32:02;23.80;78.50
53274;DHT22;39163;52.696;6.758;2022-09-03T09:34:35;23.90;78.20
53274;DHT22;39163;52.696;6.758;2022-09-03T09:37:05;24.10;78.30
53274;DHT22;39163;52.696;6.758;2022-09-03T09:39:32;24.30;78.30
53274;DHT22;39163;52.696;6.758;2022-09-03T09:42:06;24.30;76.60
53274;DHT22;39163;52.696;6.758;2022-09-03T09:44:38;24.30;76.30
53274;DHT22;39163;52.696;6.758;2022-09-03T09:49:37;24.50;77.00
53274;DHT22;39163;52.696;6.758;2022-09-03T09:52:12;24.70;77.40
53274;DHT22;39163;52.696;6.758;2022-09-03T09:54:40;24.90;77.60
53274;DHT22;39163;52.696;6.758;2022-09-03T09:57:13;25.10;76.50
53274;DHT22;39163;52.696;6.758;2022-09-03T09:59:43;25.20;77.00
53274;DHT22;39163;52.696;6.758;2022-09-03T10:02:17;25.30;76.00
53274;DHT22;39163;52.696;6.758;2022-09-03T10:04:44;25.30;74.70
53274;DHT22;39163;52.696;6.758;2022-09-03T10:07:28;25.40;75.60
53274;DHT22;39163;52.696;6.758;2022-09-03T10:12:58;25.70;75.20
53274;DHT22;39163;52.696;6.758;2022-09-03T10:18:46;25.90;73.80
53274;DHT22;39163;52.696;6.758;2022-09-03T10:21:35;26.10;73.20
53274;DHT22;39163;52.696;6.758;2022-09-03T10:24:35;26.10;72.90
53274;DHT22;39163;52.696;6.758;2022-09-03T10:27:06;26.10;72.00
53274;DHT22;39163;52.696;6.758;2022-09-03T10:29:38;26.20;72.20
53274;DHT22;39163;52.696;6.758;2022-09-03T10:32:17;26.30;71.90
53274;DHT22;39163;52.696;6.758;2022-09-03T10:37:54;26.40;70.60
53274;DHT22;39163;52.696;6.758;2022-09-03T10:44:04;26.70;71.60
53274;DHT22;39163;52.696;6.758;2022-09-03T10:46:52;26.60;70.20
53274;DHT22;39163;52.696;6.758;2022-09-03T10:49:33;26.60;69.60
53274;DHT22;39163;52.696;6.758;2022-09-03T10:52:42;26.70;70.20
53274;DHT22;39163;52.696;6.758;2022-09-03T11:00:51;27.00;68.60
53274;DHT22;39163;52.696;6.758;2022-09-03T11:03:34;27.20;68.70
53274;DHT22;39163;52.696;6.758;2022-09-03T11:06:10;27.30;67.90
53274;DHT22;39163;52.696;6.758;2022-09-03T11:08:46;27.30;68.20
53274;DHT22;39163;52.696;6.758;2022-09-03T11:11:27;27.30;68.00
53274;DHT22;39163;52.696;6.758;2022-09-03T11:14:01;27.30;66.90
53274;DHT22;39163;52.696;6.758;2022-09-03T11:23:32;27.40;65.90
53274;DHT22;39163;52.696;6.758;2022-09-03T11:26:06;27.50;66.60
53274;DHT22;39163;52.696;6.758;2022-09-03T11:31:32;27.90;67.00
53274;DHT22;39163;52.696;6.758;2022-09-03T11:34:14;27.90;66.10
53274;DHT22;39163;52.696;6.758;2022-09-03T11:36:41;27.90;65.70
53274;DHT22;39163;52.696;6.758;2022-09-03T11:39:33;28.00;65.00
53274;DHT22;39163;52.696;6.758;2022-09-03T11:42:04;28.20;65.60
53274;DHT22;39163;52.696;6.758;2022-09-03T11:44:43;28.30;65.70
53274;DHT22;39163;52.696;6.758;2022-09-03T11:47:37;28.20;65.40
53274;DHT22;39163;52.696;6.758;2022-09-03T11:52:46;28.30;65.90
53274;DHT22;39163;52.696;6.758;2022-09-03T11:55:30;28.30;64.90
53274;DHT22;39163;52.696;6.758;2022-09-03T12:00:45;28.40;64.40
53274;DHT22;39163;52.696;6.758;2022-09-03T12:03:13;28.60;64.50
53274;DHT22;39163;52.696;6.758;2022-09-03T12:06:28;28.40;64.00
53274;DHT22;39163;52.696;6.758;2022-09-03T12:09:07;28.60;64.80
53274;DHT22;39163;52.696;6.758;2022-09-03T12:14:46;28.80;63.20
53274;DHT22;39163;52.696;6.758;2022-09-03T12:20:11;28.90;63.90
53274;DHT22;39163;52.696;6.758;2022-09-03T12:22:37;28.90;63.90
53274;DHT22;39163;52.696;6.758;2022-09-03T12:25:09;28.80;62.50
53274;DHT22;39163;52.696;6.758;2022-09-03T12:27:35;28.80;62.70
53274;DHT22;39163;52.696;6.758;2022-09-03T12:30:04;28.80;62.80
53274;DHT22;39163;52.696;6.758;2022-09-03T12:32:32;28.90;63.30
53274;DHT22;39163;52.696;6.758;2022-09-03T12:37:37;28.80;62.70
53274;DHT22;39163;52.696;6.758;2022-09-03T12:40:04;29.00;62.70
53274;DHT22;39163;52.696;6.758;2022-09-03T12:42:30;29.10;63.20
53274;DHT22;39163;52.696;6.758;2022-09-03T12:45:07;29.10;62.10
53274;DHT22;39163;52.696;6.758;2022-09-03T12:47:42;29.30;63.00
53274;DHT22;39163;52.696;6.758;2022-09-03T12:50:31;29.50;62.20
53274;DHT22;39163;52.696;6.758;2022-09-03T12:53:02;29.30;61.50
53274;DHT22;39163;52.696;6.758;2022-09-03T12:55:41;29.40;62.50
53274;DHT22;39163;52.696;6.758;2022-09-03T12:58:34;29.40;62.20
53274;DHT22;39163;52.696;6.758;2022-09-03T13:04:08;29.20;62.30
53274;DHT22;39163;52.696;6.758;2022-09-03T13:07:01;29.30;62.60
53274;DHT22;39163;52.696;6.758;2022-09-03T13:09:29;29.30;62.40
53274;DHT22;39163;52.696;6.758;2022-09-03T13:11:57;29.50;62.50
53274;DHT22;39163;52.696;6.758;2022-09-03T13:14:44;29.60;63.10
53274;DHT22;39163;52.696;6.758;2022-09-03T13:17:26;29.70;62.60
53274;DHT22;39163;52.696;6.758;2022-09-03T13:25:54;29.80;62.60
53274;DHT22;39163;52.696;6.758;2022-09-03T13:28:44;29.80;62.70
53274;DHT22;39163;52.696;6.758;2022-09-03T13:31:26;29.60;61.50
53274;DHT22;39163;52.696;6.758;2022-09-03T13:33:58;29.70;62.30
53274;DHT22;39163;52.696;6.758;2022-09-03T13:36:32;29.70;61.80
53274;DHT22;39163;52.696;6.758;2022-09-03T13:39:21;29.70;61.60
53274;DHT22;39163;52.696;6.758;2022-09-03T13:42:02;29.60;60.70
53274;DHT22;39163;52.696;6.758;2022-09-03T13:44:41;29.60;61.20
53274;DHT22;39163;52.696;6.758;2022-09-03T13:50:00;29.70;62.20
53274;DHT22;39163;52.696;6.758;2022-09-03T13:55:20;29.90;61.80
53274;DHT22;39163;52.696;6.758;2022-09-03T13:58:18;29.80;61.30
53274;DHT22;39163;52.696;6.758;2022-09-03T14:09:00;29.50;60.90
53274;DHT22;39163;52.696;6.758;2022-09-03T14:11:48;29.40;62.10
53274;DHT22;39163;52.696;6.758;2022-09-03T14:20:10;29.70;60.90
53274;DHT22;39163;52.696;6.758;2022-09-03T14:23:06;29.70;61.00
53274;DHT22;39163;52.696;6.758;2022-09-03T14:25:34;29.80;59.90
53274;DHT22;39163;52.696;6.758;2022-09-03T14:28:26;29.90;61.30
53274;DHT22;39163;52.696;6.758;2022-09-03T14:50:10;29.00;61.30
53274;DHT22;39163;52.696;6.758;2022-09-03T14:52:49;29.20;60.90
53274;DHT22;39163;52.696;6.758;2022-09-03T15:00:59;28.90;61.70
53274;DHT22;39163;52.696;6.758;2022-09-03T15:06:27;28.90;61.60
53274;DHT22;39163;52.696;6.758;2022-09-03T15:09:24;28.60;61.30
53274;DHT22;39163;52.696;6.758;2022-09-03T15:12:04;28.60;61.70
53274;DHT22;39163;52.696;6.758;2022-09-03T15:14:39;28.80;61.90
53274;DHT22;39163;52.696;6.758;2022-09-03T15:20:18;28.90;61.80
53274;DHT22;39163;52.696;6.758;2022-09-03T15:29:00;28.50;61.80
53274;DHT22;39163;52.696;6.758;2022-09-03T15:34:39;28.50;62.20
53274;DHT22;39163;52.696;6.758;2022-09-03T15:37:18;28.40;62.20
53274;DHT22;39163;52.696;6.758;2022-09-03T15:39:46;28.20;62.50
53274;DHT22;39163;52.696;6.758;2022-09-03T15:42:26;28.30;63.30
53274;DHT22;39163;52.696;6.758;2022-09-03T15:44:59;28.50;62.70
53274;DHT22;39163;52.696;6.758;2022-09-03T15:50:33;28.70;62.30
53274;DHT22;39163;52.696;6.758;2022-09-03T15:58:59;28.70;63.30
53274;DHT22;39163;52.696;6.758;2022-09-03T16:01:38;28.80;62.70
53274;DHT22;39163;52.696;6.758;2022-09-03T16:06:46;28.90;62.50
53274;DHT22;39163;52.696;6.758;2022-09-03T16:09:17;28.80;62.60
53274;DHT22;39163;52.696;6.758;2022-09-03T16:15:21;28.70;61.50
53274;DHT22;39163;52.696;6.758;2022-09-03T16:17:55;28.40;62.20
53274;DHT22;39163;52.696;6.758;2022-09-03T16:20:43;28.10;62.80
53274;DHT22;39163;52.696;6.758;2022-09-03T16:26:02;27.70;63.00
53274;DHT22;39163;52.696;6.758;2022-09-03T16:28:40;27.50;63.20
53274;DHT22;39163;52.696;6.758;2022-09-03T16:41:30;26.60;64.50
53274;DHT22;39163;52.696;6.758;2022-09-03T16:47:10;26.40;65.40
53274;DHT22;39163;52.696;6.758;2022-09-03T17:03:58;25.80;66.20
53274;DHT22;39163;52.696;6.758;2022-09-03T17:12:37;25.50;67.40
53274;DHT22;39163;52.696;6.758;2022-09-03T17:23:54;25.40;68.00
53274;DHT22;39163;52.696;6.758;2022-09-03T17:26:38;25.40;67.50
53274;DHT22;39163;52.696;6.758;2022-09-03T17:37:38;25.00;67.40
53274;DHT22;39163;52.696;6.758;2022-09-03T17:40:24;24.90;67.70
53274;DHT22;39163;52.696;6.758;2022-09-03T17:45:40;24.70;68.20
53274;DHT22;39163;52.696;6.758;2022-09-03T17:50:57;24.50;68.60
53274;DHT22;39163;52.696;6.758;2022-09-03T17:56:29;24.20;69.40
53274;DHT22;39163;52.696;6.758;2022-09-03T18:03:10;23.90;69.80
53274;DHT22;39163;52.696;6.758;2022-09-03T18:08:19;23.70;70.90
53274;DHT22;39163;52.696;6.758;2022-09-03T18:11:09;23.60;70.90
53274;DHT22;39163;52.696;6.758;2022-09-03T18:13:47;23.50;71.30
53274;DHT22;39163;52.696;6.758;2022-09-03T18:18:52;23.40;71.60
53274;DHT22;39163;52.696;6.758;2022-09-03T18:21:24;23.30;71.10
53274;DHT22;39163;52.696;6.758;2022-09-03T18:24:27;23.20;71.40
53274;DHT22;39163;52.696;6.758;2022-09-03T18:27:35;23.10;71.90
53274;DHT22;39163;52.696;6.758;2022-09-03T18:30:20;23.00;72.20
53274;DHT22;39163;52.696;6.758;2022-09-03T18:33:04;22.90;71.90
53274;DHT22;39163;52.696;6.758;2022-09-03T18:35:49;22.80;71.70
53274;DHT22;39163;52.696;6.758;2022-09-03T18:38:36;22.70;72.40
53274;DHT22;39163;52.696;6.758;2022-09-03T18:41:39;22.60;72.10
53274;DHT22;39163;52.696;6.758;2022-09-03T18:56:50;22.10;72.90
53274;DHT22;39163;52.696;6.758;2022-09-03T19:15:16;21.40;73.30
53274;DHT22;39163;52.696;6.758;2022-09-03T19:18:27;21.40;73.90
53274;DHT22;39163;52.696;6.758;2022-09-03T19:21:33;21.30;73.60
53274;DHT22;39163;52.696;6.758;2022-09-03T19:24:25;21.20;74.20
53274;DHT22;39163;52.696;6.758;2022-09-03T19:27:55;21.20;73.60
53274;DHT22;39163;52.696;6.758;2022-09-03T19:30:58;21.10;74.10
53274;DHT22;39163;52.696;6.758;2022-09-03T19:40:22;20.90;74.00
53274;DHT22;39163;52.696;6.758;2022-09-03T19:46:46;20.70;74.40
53274;DHT22;39163;52.696;6.758;2022-09-03T19:55:35;20.50;74.00
53274;DHT22;39163;52.696;6.758;2022-09-03T19:58:22;20.50;74.30
53274;DHT22;39163;52.696;6.758;2022-09-03T20:01:11;20.40;74.20
53274;DHT22;39163;52.696;6.758;2022-09-03T20:03:59;20.30;74.70
53274;DHT22;39163;52.696;6.758;2022-09-03T20:06:46;20.20;74.70
53274;DHT22;39163;52.696;6.758;2022-09-03T20:09:39;20.10;74.70
53274;DHT22;39163;52.696;6.758;2022-09-03T20:12:28;20.10;74.90
53274;DHT22;39163;52.696;6.758;2022-09-03T20:15:06;20.00;75.40
53274;DHT22;39163;52.696;6.758;2022-09-03T20:17:56;20.00;74.80
53274;DHT22;39163;52.696;6.758;2022-09-03T20:20:41;19.90;75.10
53274;DHT22;39163;52.696;6.758;2022-09-03T20:23:12;19.90;75.10
53274;DHT22;39163;52.696;6.758;2022-09-03T20:29:06;19.80;75.30
53274;DHT22;39163;52.696;6.758;2022-09-03T20:37:38;19.60;75.40
53274;DHT22;39163;52.696;6.758;2022-09-03T20:43:26;19.50;75.20
53274;DHT22;39163;52.696;6.758;2022-09-03T20:46:23;19.50;75.40
53274;DHT22;39163;52.696;6.758;2022-09-03T20:51:45;19.50;75.50
53274;DHT22;39163;52.696;6.758;2022-09-03T20:54:34;19.40;75.50
53274;DHT22;39163;52.696;6.758;2022-09-03T21:00:07;19.30;75.60
53274;DHT22;39163;52.696;6.758;2022-09-03T21:02:38;19.30;75.40
53274;DHT22;39163;52.696;6.758;2022-09-03T21:05:24;19.20;75.60
53274;DHT22;39163;52.696;6.758;2022-09-03T21:13:29;19.10;75.90
53274;DHT22;39163;52.696;6.758;2022-09-03T21:16:32;19.10;75.90
53274;DHT22;39163;52.696;6.758;2022-09-03T21:21:55;18.90;75.80
53274;DHT22;39163;52.696;6.758;2022-09-03T21:24:46;18.80;76.40
53274;DHT22;39163;52.696;6.758;2022-09-03T21:27:18;18.70;76.30
53274;DHT22;39163;52.696;6.758;2022-09-03T21:32:24;18.70;76.10
53274;DHT22;39163;52.696;6.758;2022-09-03T21:35:05;18.70;76.20
53274;DHT22;39163;52.696;6.758;2022-09-03T21:37:35;18.60;76.30
53274;DHT22;39163;52.696;6.758;2022-09-03T21:40:03;18.60;77.00
53274;DHT22;39163;52.696;6.758;2022-09-03T21:42:48;18.50;76.60
53274;DHT22;39163;52.696;6.758;2022-09-03T21:45:38;18.50;76.50
53274;DHT22;39163;52.696;6.758;2022-09-03T21:48:09;18.50;76.40
53274;DHT22;39163;52.696;6.758;2022-09-03T21:50:57;18.40;76.40
53274;DHT22;39163;52.696;6.758;2022-09-03T21:59:02;18.30;76.70
53274;DHT22;39163;52.696;6.758;2022-09-03T22:04:25;18.20;76.90
53274;DHT22;39163;52.696;6.758;2022-09-03T22:12:50;18.10;77.20
53274;DHT22;39163;52.696;6.758;2022-09-03T22:15:19;18.00;77.00
53274;DHT22;39163;52.696;6.758;2022-09-03T22:17:51;18.00;76.60
53274;DHT22;39163;52.696;6.758;2022-09-03T22:20:22;17.90;76.90
53274;DHT22;39163;52.696;6.758;2022-09-03T22:23:11;17.90;77.10
53274;DHT22;39163;52.696;6.758;2022-09-03T22:26:05;17.80;77.30
53274;DHT22;39163;52.696;6.758;2022-09-03T22:29:05;17.80;77.20
53274;DHT22;39163;52.696;6.758;2022-09-03T22:31:49;17.80;77.10
53274;DHT22;39163;52.696;6.758;2022-09-03T22:37:30;17.70;76.90
53274;DHT22;39163;52.696;6.758;2022-09-03T22:43:35;17.70;77.20
53274;DHT22;39163;52.696;6.758;2022-09-03T22:46:06;17.70;77.30
53274;DHT22;39163;52.696;6.758;2022-09-03T22:51:27;17.60;77.20
53274;DHT22;39163;52.696;6.758;2022-09-03T22:56:23;17.50;77.40
53274;DHT22;39163;52.696;6.758;2022-09-03T22:59:09;17.40;77.20